Abnaki, Vermont
Current Conditions -  °F | °C
As of 7:55 PM on Tuesday 21 Oct 2014 (Local Time) from KFSO Reporting Station
Drizzle Drizzle  
Wind Chill: 42°   Ceiling: 500
Heat Index: 46°   Visibility: 5mi
Dew Point: 45°   Wind: 7mph
Humidity: 97%   Direction: 350°N
Pressure: 30.07"   Gusts: NA
Location:  44.841°N, 73.2779°W
Report Text: KFSO 212355Z AUTO 35006KT 5SM -DZ OVC005 08/07 A3007 RMK AO2 T00750070 10094 20075
Loading
Personal Weather Stations






























Interactive Weather Map
Tropical Storm Tracking
New forecast layout! Learn more

10-Day Weather Forecast

Advertisements
Track Severe Weather on mobile